Red Wing, Minnesota
Current Conditions -  °F | °C
As of 4:10 PM on Thursday 23 Oct 2014 (Local Time) from KRGK Reporting Station
Scattered Clouds Scattered Clouds  
Wind Chill: 59°   Ceiling: Unl
Heat Index: 59°   Visibility: 10mi
Dew Point: 52°   Wind: 6mph
Humidity: 77%   Direction: 110°ESE
Pressure: 29.97"   Gusts: NA
Location:  44.57°N, 92.53°W
Report Text: KRGK 232110Z AUTO 11005KT 10SM SCT016 15/11 A2997 RMK AO2
Loading
Personal Weather Stations






























Interactive Weather Map
Tropical Storm Tracking
New forecast layout! Learn more

10-Day Weather Forecast

Advertisements
Track Severe Weather on mobile